Brooklyn, NY (11201)

4:39 PM EDT on October 31, 2014 (GMT -0400)
Cobble Hill | Change Station
CLOSE
Current Station
Personal Weather Station
Location: New York, NY
Elevation: 46 ft
Nearby Weather Stations

Elev 46 ft 40.69 °N, 73.99 °W | Updated 3 seconds ago

Overcast
Overcast
54.1 °F
Feels Like 54.1 °F
N
7.8
Wind Variable Wind from NNE

Today
High -- | Low -- °F
--% Chance of Precip.
Yesterday
High -- | Low -- °F
Precip. -- in
7:25 AM 5:53 PM
First Quarter, 58% visible
Pressure 29.90 in
Visibility 10.0 miles
Clouds Mostly Cloudy 4600 ft
Overcast 5500 ft
Dew Point 40 °F
Humidity 59%
Rainfall 0.00 in
Snow Depth Not available.
UV 0 out of 12
Pollen .50 out of 12
Air Quality Not available.
Flu Activity Not available.
METAR KNYC 311951Z AUTO 07007KT 020V100 10SM BKN046 OVC055 12/02 A2992 RMK AO2 SLP123 T01220022 $

More Conditions Fewer Conditions

Pressure 29.90 in
Visibility 10.0 miles
Clouds Mostly Cloudy 4600 ft
Overcast 5500 ft
Dew Point 40 °F
Humidity 59%
Rainfall 0.00 in
Snow Depth Not available.
UV 0 out of 12
Pollen .50 out of 12
Air Quality Not available.
Flu Activity Not available.
METAR KNYC 311951Z AUTO 07007KT 020V100 10SM BKN046 OVC055 12/02 A2992 RMK AO2 SLP123 T01220022 $

More Conditions Fewer Conditions

10-Day Weather Forecast

Almanac

Astronomy

Oct. 31, 2014 Rise Set
Actual Time
Civil Twilight
Nautical Twilight
Astronomical Twilight
Moon
Length of Visible Light
Length of Day
Tomorrow will be .
, % of the Moon is Illuminated

Today's Extremes

State Highs State Lows

Community

WunderPhotos

Upload Photos

1,766,733 photos uploaded!

WunderBlogs® & News

Nearby

Air Quality

  Air Quality AQ Index Pollutant
Not available.

Snow Depth

Station Depth Elevation

Earthquake Activity

City Distance Mag. Time & Date
Minimum magnitude displayed is 2.5.

Coastal Water Temperatures

Place Temperature

Nearby Weather Stations